Time;durP1;ratioP1;P1;durP2;ratioP2;P2;SDS_P1;SDS_P2;PMS_P1;PMS_P2;Temp;Humidity;BMP_temperature;BMP_pressure;BME280_temperature;BME280_humidity;BME280_pressure;Samples;Min_cycle;Max_cycle;Signal;HPM_P1;HPM_P2
2022/12/22 03:27:28;;;;;;;130.05;60.28;;;;;;;0.37;100.00;98780.08;4136374;84;21076;-88
2022/12/22 03:33:30;;;;;;;126.25;57.15;;;;;;;0.43;100.00;98780.17;4144506;85;21066;-88
2022/12/22 03:39:32;;;;;;;115.88;55.30;;;;;;;0.46;100.00;98779.53;4136396;83;21027;-88
2022/12/22 03:51:53;;;;;;;122.95;54.38;;;;;;;0.51;100.00;98774.01;4194661;83;21001;-89
2022/12/22 03:57:55;;;;;;;108.60;50.33;;;;;;;0.53;100.00;98774.49;4170842;83;21069;-89
2022/12/22 04:03:58;;;;;;;111.45;51.63;;;;;;;0.55;100.00;98773.64;4195702;83;21087;-90
2022/12/22 04:16:18;;;;;;;89.42;43.23;;;;;;;0.62;100.00;98763.97;4189294;83;21587;-89
2022/12/22 04:22:20;;;;;;;103.85;49.45;;;;;;;0.63;100.00;98760.16;4194690;83;21065;-89
2022/12/22 04:28:22;;;;;;;102.67;50.00;;;;;;;0.65;100.00;98762.53;4205911;83;21099;-90
2022/12/22 04:34:27;;;;;;;99.35;49.95;;;;;;;0.62;100.00;98754.55;4185242;82;204975;-89
2022/12/22 04:40:28;;;;;;;105.30;51.05;;;;;;;0.61;100.00;98742.74;4194543;83;21021;-90
2022/12/22 04:46:37;;;;;;;103.27;49.98;;;;;;;0.63;100.00;98736.46;4196489;83;21054;-90
2022/12/22 04:52:33;;;;;;;104.97;47.43;;;;;;;0.64;100.00;98734.83;4146353;84;21060;-89
2022/12/22 04:58:35;;;;;;;109.48;51.80;;;;;;;0.69;100.00;98723.09;4156234;84;21134;-90
2022/12/22 05:04:38;;;;;;;104.12;48.00;;;;;;;0.76;100.00;98702.65;4146651;83;21051;-90
2022/12/22 05:10:40;;;;;;;118.13;53.75;;;;;;;0.70;100.00;98703.13;4168734;82;21069;-90
2022/12/22 05:16:42;;;;;;;94.62;46.25;;;;;;;0.55;100.00;98703.03;4143989;84;21054;-90
2022/12/22 05:22:44;;;;;;;100.65;45.98;;;;;;;0.56;100.00;98705.18;4124656;84;21084;-90
2022/12/22 05:28:47;;;;;;;113.97;52.75;;;;;;;0.48;100.00;98704.62;4151862;84;21103;-89
2022/12/22 05:34:48;;;;;;;132.57;63.28;;;;;;;0.41;100.00;98708.34;4158291;84;21106;-90
2022/12/22 05:40:51;;;;;;;131.57;60.40;;;;;;;0.42;100.00;98705.34;4155130;84;21127;-90
2022/12/22 05:46:53;;;;;;;115.10;54.83;;;;;;;0.41;100.00;98694.89;4130658;84;21625;-89
2022/12/22 05:52:56;;;;;;;103.32;49.58;;;;;;;0.40;100.00;98682.51;4170863;83;21637;-90
2022/12/22 05:58:58;;;;;;;133.27;63.68;;;;;;;0.33;100.00;98691.05;4173131;84;21134;-89
2022/12/22 06:05:01;;;;;;;127.90;61.70;;;;;;;0.22;100.00;98689.00;4184571;84;21732;-90
2022/12/22 06:11:03;;;;;;;131.43;62.95;;;;;;;0.19;100.00;98682.33;4098002;86;21771;-90
2022/12/22 06:17:05;;;;;;;141.15;66.67;;;;;;;0.08;100.00;98687.77;4176225;84;21047;-90
2022/12/22 06:23:09;;;;;;;137.70;66.45;;;;;;;0.02;100.00;98707.86;4174868;83;21054;-89
2022/12/22 06:29:13;;;;;;;132.15;64.40;;;;;;;0.07;100.00;98705.03;4168255;83;20988;-90
2022/12/22 06:35:15;;;;;;;158.72;75.00;;;;;;;0.06;100.00;98703.45;4168674;83;21336;-89
2022/12/22 06:43:07;;;;;;;164.95;78.87;;;;;;;0.10;100.00;98698.22;4168005;83;21713;-89
2022/12/22 06:47:22;;;;;;;159.32;77.75;;;;;;;0.18;100.00;98706.86;4157560;84;21071;-89
2022/12/22 06:53:25;;;;;;;154.93;72.72;;;;;;;0.22;100.00;98704.58;4151684;84;21027;-89
2022/12/22 06:59:28;;;;;;;146.20;69.10;;;;;;;0.27;100.00;98702.31;4154307;83;21027;-90
2022/12/22 07:05:30;;;;;;;148.93;71.05;;;;;;;0.34;100.00;98691.31;4159718;83;21066;-89
2022/12/22 07:11:32;;;;;;;153.97;73.50;;;;;;;0.39;100.00;98696.55;4146031;84;21873;-89
2022/12/22 07:17:33;;;;;;;136.20;67.05;;;;;;;0.32;100.00;98700.79;4152276;84;21254;-89
2022/12/22 07:23:36;;;;;;;149.93;72.72;;;;;;;0.33;100.00;98698.36;4133482;84;21020;-90
2022/12/22 07:29:39;;;;;;;135.15;66.92;;;;;;;0.37;100.00;98685.29;4129138;84;21020;-90
2022/12/22 07:35:42;;;;;;;121.82;54.30;;;;;;;0.45;100.00;98670.24;4132359;84;21066;-90
2022/12/22 07:50:23;;;;;;;112.12;52.88;;;;;;;0.75;100.00;98635.61;4130436;84;21109;-90
2022/12/22 07:54:14;;;;;;;120.22;56.92;;;;;;;0.81;100.00;98649.95;4128342;84;21080;-91
2022/12/22 08:00:16;;;;;;;133.55;64.97;;;;;;;0.78;100.00;98664.61;4131944;84;21016;-91
2022/12/22 08:06:18;;;;;;;130.85;60.10;;;;;;;0.85;100.00;98638.75;4131679;84;21049;-91
2022/12/22 08:12:19;;;;;;;143.13;67.53;;;;;;;0.81;100.00;98641.06;4127390;84;21031;-91
2022/12/22 08:18:21;;;;;;;134.12;64.95;;;;;;;0.83;100.00;98640.20;4130492;84;21131;-91
2022/12/22 08:24:23;;;;;;;154.97;76.37;;;;;;;0.88;100.00;98648.89;4128717;84;21059;-91
2022/12/22 08:30:24;;;;;;;159.25;76.77;;;;;;;0.98;100.00;98629.70;4130378;84;21472;-92
2022/12/22 08:36:26;;;;;;;155.65;76.12;;;;;;;1.07;100.00;98618.33;4130833;84;20980;-91
2022/12/22 08:42:27;;;;;;;129.18;65.57;;;;;;;1.21;100.00;98623.52;4149866;83;21114;-91
2022/12/22 08:48:30;;;;;;;166.10;79.53;;;;;;;1.38;100.00;98609.96;4139920;84;22229;-92
2022/12/22 08:54:32;;;;;;;146.35;72.60;;;;;;;1.54;100.00;98606.41;4142926;83;20984;-92
2022/12/22 09:00:34;;;;;;;149.20;73.67;;;;;;;1.71;100.00;98597.42;4140741;83;21007;-92
2022/12/22 09:06:38;;;;;;;158.18;75.65;;;;;;;1.79;100.00;98587.13;4136988;84;21289;-92
2022/12/22 09:12:50;;;;;;;147.80;73.85;;;;;;;1.90;100.00;98588.88;4137835;84;21562;-93
2022/12/22 09:19:21;;;;;;;;;;;;;;;;;;;;;
2022/12/22 09:32:02;;;;;;;134.15;68.10;;;;;;;1.93;100.00;98559.91;3905693;87;21670;-93
2022/12/22 09:38:27;;;;;;;;;;;;;;;;;;;;;
2022/12/22 09:52:26;;;;;;;;;;;;;;;;;;;;;
2022/12/22 10:36:34;;;;;;;128.02;62.27;;;;;;;3.47;100.00;98463.04;3236539;101;21230;-92
2022/12/22 10:42:51;;;;;;;135.20;69.67;;;;;;;3.54;100.00;98449.73;3583459;93;21541;-93
2022/12/22 10:49:11;;;;;;;134.55;67.08;;;;;;;3.60;100.00;98447.02;3864526;84;21808;-92
2022/12/22 10:55:40;;;;;;;;;;;;;;;;;;;;;
2022/12/22 11:01:42;;;;;;;113.57;59.33;;;;;;;3.84;100.00;98430.68;4035054;84;21086;-93
2022/12/22 11:07:53;;;;;;;114.90;59.67;;;;;;;4.26;100.00;98416.97;4104638;84;21042;-93
2022/12/22 11:14:52;;;;;;;118.35;60.92;;;;;;;4.43;100.00;98406.56;4079978;84;21051;-93
2022/12/22 11:21:44;;;;;;;;;;;;;;;;;;;;;
2022/12/22 11:34:45;;;;;;;142.93;69.65;;;;;;;4.32;100.00;98404.16;4231292;82;21139;-90
2022/12/22 11:40:56;;;;;;;120.67;64.12;;;;;;;4.26;100.00;98399.36;4129854;84;21057;-90
2022/12/22 11:47:42;;;;;;;127.02;69.87;;;;;;;4.15;100.00;98385.52;4115416;85;21178;-90
2022/12/22 11:54:04;;;;;;;161.40;86.08;;;;;;;4.14;100.00;98374.47;4206404;83;21043;-89
2022/12/22 12:00:18;;;;;;;125.95;69.12;;;;;;;4.08;100.00;98371.80;4207932;83;21001;-90
2022/12/22 12:06:46;;;;;;;137.25;74.32;;;;;;;4.06;100.00;98371.91;4209841;83;21122;-89
2022/12/22 12:12:55;;;;;;;;;;;;;;;4.05;100.00;98369.78;4211079;83;21049;-89
2022/12/22 12:19:41;;;;;;;126.20;67.72;;;;;;;4.05;100.00;98368.43;4210369;83;20640;-90
2022/12/22 12:25:58;;;;;;;102.13;52.53;;;;;;;4.18;100.00;98352.31;4191102;83;21071;-88
2022/12/22 12:32:25;;;;;;;135.82;71.07;;;;;;;4.58;100.00;98346.73;4211391;81;21057;-89
2022/12/22 12:38:45;;;;;;;142.93;76.77;;;;;;;4.44;100.00;98335.55;4190986;83;21085;-89
2022/12/22 12:44:51;;;;;;;151.40;80.92;;;;;;;4.12;100.00;98323.91;4209151;83;21141;-90
2022/12/22 12:50:53;;;;;;;157.97;81.25;;;;;;;3.90;100.00;98318.31;4208713;83;21034;-90
2022/12/22 12:57:13;;;;;;;157.47;83.45;;;;;;;3.80;100.00;98312.83;4191005;83;21078;-89
2022/12/22 13:03:30;;;;;;;165.15;86.82;;;;;;;3.74;100.00;98315.58;4208598;83;21013;-92
2022/12/22 13:09:32;;;;;;;;;;;;;;;3.74;100.00;98308.02;4209069;83;21608;-91
2022/12/22 13:15:41;;;;;;;157.60;85.55;;;;;;;3.78;100.00;98294.78;4208317;83;20176;-93
2022/12/22 13:21:45;;;;;;;160.03;88.03;;;;;;;3.76;100.00;98296.28;4187253;83;21081;-91
2022/12/22 13:27:49;;;;;;;163.15;86.60;;;;;;;3.56;100.00;98302.67;4209638;83;21033;-90
2022/12/22 13:34:13;;;;;;;106.92;56.65;;;;;;;3.54;100.00;98287.37;4196086;83;21054;-90
2022/12/22 13:40:30;;;;;;;102.60;51.75;;;;;;;3.55;100.00;98296.49;4206390;83;21067;-91
2022/12/22 13:46:35;;;;;;;87.30;45.43;;;;;;;3.62;100.00;98297.26;4208097;83;21687;-90
2022/12/22 13:52:39;;;;;;;93.58;46.92;;;;;;;3.62;100.00;98295.31;4211305;83;21037;-90
2022/12/22 13:58:47;;;;;;;84.90;44.95;;;;;;;3.54;100.00;98285.43;4209883;83;21066;-90
2022/12/22 14:05:11;;;;;;;121.67;58.42;;;;;;;3.51;100.00;98284.00;4213771;83;21537;-90
2022/12/22 14:11:12;;;;;;;109.27;52.70;;;;;;;3.33;100.00;98276.75;4211854;83;21503;-90
2022/12/22 14:17:34;;;;;;;73.42;37.15;;;;;;;3.28;100.00;98282.39;4217669;83;21592;-91
2022/12/22 14:23:43;;;;;;;61.95;34.43;;;;;;;3.13;100.00;98279.08;4241084;81;21013;-91
2022/12/22 14:29:44;;;;;;;67.65;35.68;;;;;;;3.00;100.00;98281.59;4201226;81;21065;-89
2022/12/22 14:35:46;;;;;;;42.60;22.37;;;;;;;2.88;100.00;98281.05;4215126;83;21060;-89
2022/12/22 14:41:51;;;;;;;30.75;16.27;;;;;;;2.85;100.00;98285.78;4223925;83;22149;-90
2022/12/22 14:47:55;;;;;;;29.98;14.87;;;;;;;3.10;100.00;98275.71;4219245;83;21105;-91
2022/12/22 14:54:01;;;;;;;24.63;12.85;;;;;;;3.20;100.00;98276.56;4194007;83;21052;-89
2022/12/22 15:00:24;;;;;;;;;;;;;;;3.19;100.00;98279.82;4223065;83;21052;-90
2022/12/22 15:06:33;;;;;;;20.70;10.88;;;;;;;3.06;100.00;98274.25;4221766;83;20233;-90
2022/12/22 15:12:36;;;;;;;20.72;9.70;;;;;;;3.20;100.00;98270.59;4221675;83;21006;-91
2022/12/22 15:18:38;;;;;;;14.55;7.80;;;;;;;3.17;100.00;98269.93;4224281;83;21925;-91
2022/12/22 15:24:40;;;;;;;17.30;8.58;;;;;;;3.15;100.00;98258.66;4218845;83;21056;-89
2022/12/22 15:30:41;;;;;;;16.57;8.80;;;;;;;3.14;100.00;98254.95;4219239;81;21078;-90
2022/12/22 15:36:46;;;;;;;12.63;6.72;;;;;;;3.21;100.00;98252.45;4221158;83;21089;-88
2022/12/22 15:42:49;;;;;;;12.68;7.15;;;;;;;3.27;100.00;98251.63;4220435;83;21057;-91
2022/12/22 15:48:51;;;;;;;13.88;7.20;;;;;;;3.31;100.00;98247.09;4221589;83;21278;-90
2022/12/22 15:54:53;;;;;;;13.28;6.95;;;;;;;3.31;100.00;98234.92;4219825;83;21069;-90
2022/12/22 16:00:55;;;;;;;11.05;6.58;;;;;;;3.30;100.00;98218.48;4220404;83;21081;-90
2022/12/22 16:06:58;;;;;;;13.72;6.37;;;;;;;3.44;100.00;98220.21;4220292;83;21050;-90
2022/12/22 16:13:02;;;;;;;12.37;6.08;;;;;;;3.48;100.00;98221.11;4217695;83;21021;-90
2022/12/22 16:19:04;;;;;;;14.63;7.72;;;;;;;3.93;100.00;98219.55;4216434;83;21119;-89
2022/12/22 16:25:14;;;;;;;15.13;7.37;;;;;;;3.83;100.00;98221.44;4217817;83;21560;-89
2022/12/22 16:31:23;;;;;;;16.15;8.38;;;;;;;3.78;100.00;98229.02;4220585;83;21069;-91
2022/12/22 16:37:24;;;;;;;14.65;8.20;;;;;;;3.67;100.00;98231.46;4205902;83;21082;-90
2022/12/22 16:43:40;;;;;;;12.88;7.30;;;;;;;3.66;100.00;98232.61;4055594;86;21065;-90
2022/12/22 16:49:46;;;;;;;14.53;7.35;;;;;;;3.59;100.00;98235.67;4055323;86;21055;-90
2022/12/22 16:55:47;;;;;;;13.32;6.95;;;;;;;3.62;100.00;98234.42;4054296;86;22137;-89
2022/12/22 17:01:56;;;;;;;15.18;7.28;;;;;;;3.64;100.00;98237.58;4049179;86;21118;-90
2022/12/22 17:07:59;;;;;;;15.43;6.47;;;;;;;3.63;100.00;98243.34;4041859;86;22162;-89
2022/12/22 17:14:09;;;;;;;16.02;7.47;;;;;;;3.84;100.00;98250.63;4054095;86;21036;-90
2022/12/22 17:20:19;;;;;;;23.27;9.90;;;;;;;4.04;100.00;98248.27;4047063;86;21110;-89
2022/12/22 17:26:24;;;;;;;18.27;8.08;;;;;;;4.29;100.00;98242.88;4051885;86;21054;-90
2022/12/22 17:32:26;;;;;;;21.85;9.68;;;;;;;4.30;100.00;98246.58;4055641;86;21011;-90
2022/12/22 17:38:28;;;;;;;23.80;10.58;;;;;;;4.19;100.00;98245.55;4052063;85;21581;-88
2022/12/22 17:44:30;;;;;;;20.20;9.98;;;;;;;4.13;100.00;98247.51;4049275;86;21030;-90
2022/12/22 17:50:32;;;;;;;22.58;10.82;;;;;;;4.20;100.00;98249.02;4055099;86;21686;-87
2022/12/22 17:56:34;;;;;;;21.30;10.72;;;;;;;4.17;100.00;98246.45;4053336;86;22159;-87
2022/12/22 18:02:35;;;;;;;18.95;9.30;;;;;;;4.14;100.00;98237.68;4054464;86;21056;-87
2022/12/22 18:08:37;;;;;;;22.60;10.35;;;;;;;4.11;100.00;98227.55;4052026;86;22124;-88
2022/12/22 18:14:40;;;;;;;23.25;9.80;;;;;;;4.06;100.00;98222.95;4049409;86;21055;-89
2022/12/22 18:20:45;;;;;;;19.45;9.00;;;;;;;4.10;100.00;98215.71;4052203;86;21069;-89
2022/12/22 18:26:47;;;;;;;20.12;9.33;;;;;;;4.05;100.00;98218.12;4015517;87;21068;-88
2022/12/22 18:32:50;;;;;;;20.77;9.43;;;;;;;4.05;100.00;98215.41;4018823;87;21104;-88
2022/12/22 18:38:52;;;;;;;20.48;9.75;;;;;;;4.05;100.00;98205.14;3994605;86;21174;-89
2022/12/22 18:44:54;;;;;;;19.32;8.90;;;;;;;3.90;100.00;98190.46;4009937;85;27224;-87
2022/12/22 18:50:55;;;;;;;25.85;12.75;;;;;;;3.94;100.00;98189.20;4013575;87;22113;-88
2022/12/22 18:56:57;;;;;;;24.43;13.80;;;;;;;3.82;100.00;98195.48;3983510;88;21130;-89
2022/12/22 19:03:01;;;;;;;27.17;15.03;;;;;;;3.71;100.00;98189.61;3963145;88;21088;-89
2022/12/22 19:09:12;;;;;;;26.00;14.13;;;;;;;3.63;100.00;98186.50;3984305;88;21174;-88
2022/12/22 19:15:22;;;;;;;29.12;12.75;;;;;;;3.64;100.00;98177.23;4027229;87;21062;-88
2022/12/22 19:21:24;;;;;;;25.27;11.53;;;;;;;3.64;100.00;98185.36;4024695;87;21110;-89
2022/12/22 19:27:26;;;;;;;25.32;10.30;;;;;;;3.67;100.00;98178.69;3926729;89;21345;-88
2022/12/22 19:33:36;;;;;;;17.35;9.43;;;;;;;3.71;100.00;98184.19;4026033;86;22045;-88
2022/12/22 19:39:37;;;;;;;18.75;8.03;;;;;;;3.80;100.00;98185.59;3994452;86;21159;-89
2022/12/22 19:45:39;;;;;;;17.10;7.65;;;;;;;3.84;100.00;98186.45;4071926;86;21084;-88
2022/12/22 19:51:40;;;;;;;14.90;7.60;;;;;;;3.88;100.00;98183.28;4083756;86;21067;-88
2022/12/22 19:57:45;;;;;;;13.98;6.40;;;;;;;3.97;100.00;98189.85;4042901;86;21192;-89
2022/12/22 20:03:47;;;;;;;16.40;8.00;;;;;;;3.94;100.00;98190.00;4063891;87;21117;-89
2022/12/22 20:09:50;;;;;;;21.02;9.68;;;;;;;3.95;100.00;98183.44;4078636;86;21135;-88
2022/12/22 20:15:51;;;;;;;13.45;7.47;;;;;;;4.00;100.00;98182.38;3979425;88;21112;-89
2022/12/22 20:21:53;;;;;;;21.57;10.50;;;;;;;3.97;100.00;98185.23;4048365;87;22133;-89
2022/12/22 20:27:55;;;;;;;17.75;8.05;;;;;;;3.97;100.00;98187.94;4078430;86;21742;-87
2022/12/22 20:33:57;;;;;;;18.62;7.50;;;;;;;3.95;100.00;98188.05;4090938;86;21122;-89
2022/12/22 20:39:58;;;;;;;12.58;6.47;;;;;;;3.93;100.00;98176.81;3989913;88;22048;-89
2022/12/22 20:46:04;;;;;;;15.28;8.05;;;;;;;3.90;100.00;98168.80;4035838;87;21097;-89
2022/12/22 20:52:08;;;;;;;16.60;6.97;;;;;;;3.85;100.00;98175.86;4093235;85;21071;-89
2022/12/22 20:58:21;;;;;;;14.43;7.35;;;;;;;3.68;100.00;98178.13;4076481;86;21124;-89
2022/12/22 21:04:23;;;;;;;16.70;8.28;;;;;;;3.60;100.00;98188.55;4087741;86;21570;-88
2022/12/22 21:10:25;;;;;;;15.25;6.65;;;;;;;3.56;100.00;98183.05;4069730;86;22191;-90
2022/12/22 21:16:30;;;;;;;21.33;9.55;;;;;;;3.61;100.00;98183.34;4096376;86;21658;-89
2022/12/22 21:22:32;;;;;;;17.65;7.67;;;;;;;3.59;100.00;98183.70;4110276;84;21077;-88
2022/12/22 21:28:37;;;;;;;15.95;7.87;;;;;;;3.64;100.00;98175.88;4105307;86;21728;-87
2022/12/22 21:34:41;;;;;;;14.03;7.37;;;;;;;3.57;100.00;98182.48;4110614;86;21155;-88
2022/12/22 21:40:45;;;;;;;15.13;7.53;;;;;;;3.51;100.00;98171.70;4087654;86;21076;-88
2022/12/22 21:46:46;;;;;;;11.75;6.83;;;;;;;3.48;100.00;98169.70;4053968;87;21163;-88
2022/12/22 21:52:49;;;;;;;13.50;6.87;;;;;;;3.46;100.00;98166.55;3997162;88;21089;-87
2022/12/22 21:58:50;;;;;;;20.05;7.75;;;;;;;3.62;100.00;98169.47;4038838;87;22139;-88
2022/12/22 22:04:52;;;;;;;15.20;7.75;;;;;;;3.58;100.00;98176.72;4059052;87;21089;-87
2022/12/22 22:10:53;;;;;;;14.28;7.65;;;;;;;3.55;100.00;98180.69;4092214;86;21009;-87
2022/12/22 22:16:55;;;;;;;13.10;6.75;;;;;;;3.48;100.00;98174.52;4108163;86;21130;-87
2022/12/22 22:22:59;;;;;;;13.40;7.62;;;;;;;3.56;100.00;98171.42;4093439;86;21856;-87
2022/12/22 22:29:00;;;;;;;14.30;7.37;;;;;;;3.63;100.00;98182.44;4128441;82;21108;-87
2022/12/22 22:35:03;;;;;;;15.55;7.85;;;;;;;3.46;100.00;98180.08;4219145;83;21030;-87
2022/12/22 22:41:05;;;;;;;16.10;7.03;;;;;;;3.37;100.00;98186.22;4231459;81;21982;-87
2022/12/22 22:47:06;;;;;;;14.93;6.65;;;;;;;3.28;100.00;98189.08;4232528;83;21004;-88
2022/12/22 22:53:08;;;;;;;13.65;6.80;;;;;;;3.38;100.00;98181.02;4249992;80;21120;-89
2022/12/22 22:59:11;;;;;;;12.93;6.15;;;;;;;3.34;100.00;98174.71;4320280;81;21015;-87
2022/12/22 23:05:13;;;;;;;13.13;6.70;;;;;;;3.28;100.00;98175.55;4308386;81;21506;-88
2022/12/22 23:11:15;;;;;;;12.13;6.35;;;;;;;3.16;100.00;98165.57;4322015;81;21099;-88
2022/12/22 23:17:17;;;;;;;13.55;5.97;;;;;;;3.17;100.00;98167.72;4284638;82;21061;-87
2022/12/22 23:23:19;;;;;;;11.33;5.55;;;;;;;3.27;100.00;98170.48;4314865;81;21053;-89
2022/12/22 23:29:21;;;;;;;12.68;6.00;;;;;;;3.31;100.00;98169.44;4310701;81;20997;-88
2022/12/22 23:35:22;;;;;;;11.00;5.55;;;;;;;3.27;100.00;98167.23;4317597;81;20982;-88
2022/12/22 23:41:25;;;;;;;9.85;5.87;;;;;;;3.18;100.00;98176.84;4304677;81;21995;-88
2022/12/22 23:47:26;;;;;;;16.27;7.03;;;;;;;3.16;100.00;98184.50;4305983;81;21049;-88
2022/12/22 23:53:28;;;;;;;16.20;7.53;;;;;;;3.16;100.00;98192.61;4310603;81;21070;-88
2022/12/22 23:59:30;;;;;;;14.40;6.10;;;;;;;3.15;100.00;98195.66;4302123;81;21034;-88
